TimeMST,TemperatureF,Dew PointF,Humidity,Sea Level PressureIn,VisibilityMPH,Wind Direction,Wind SpeedMPH,Gust SpeedMPH,PrecipitationIn,Events,Conditions,WindDirDegrees,DateUTC
12:15 AM,10.4,0.7,65,30.02,10.0,NW,4.6,-,N/A,,Clear,310,2014-01-23 07:15:00
12:35 AM,10.9,1.6,66,30.04,10.0,NW,5.8,-,N/A,,Clear,320,2014-01-23 07:35:00
12:55 AM,11.7,0.9,62,30.03,10.0,NW,4.6,-,N/A,,Clear,320,2014-01-23 07:55:00
1:15 AM,9.7,0.3,66,30.02,10.0,Calm,Calm,-,N/A,,Clear,0,2014-01-23 08:15:00
1:35 AM,8.8,-0.4,66,30.02,10.0,NNW,5.8,-,N/A,,Clear,340,2014-01-23 08:35:00
1:55 AM,10.2,1.8,69,30.02,10.0,WNW,5.8,-,N/A,,Clear,300,2014-01-23 08:55:00
2:15 AM,10.2,1.2,67,30.02,10.0,NW,5.8,-,N/A,,Clear,310,2014-01-23 09:15:00
2:35 AM,9.5,1.4,70,30.02,10.0,NW,4.6,-,N/A,,Clear,310,2014-01-23 09:35:00
2:55 AM,7.7,-0.0,71,30.03,10.0,WNW,4.6,-,N/A,,Clear,300,2014-01-23 09:55:00
3:15 AM,9.7,0.7,67,30.04,10.0,Calm,Calm,-,N/A,,Clear,0,2014-01-23 10:15:00
3:35 AM,7.0,-0.0,73,30.06,10.0,Calm,Calm,-,N/A,,Clear,0,2014-01-23 10:35:00
3:55 AM,6.6,-1.8,68,30.06,10.0,Calm,Calm,-,N/A,,Clear,0,2014-01-23 10:55:00
4:15 AM,7.2,0.5,74,30.06,10.0,Calm,Calm,-,N/A,,Clear,0,2014-01-23 11:15:00
4:35 AM,4.6,-1.8,75,30.07,10.0,NNW,4.6,-,N/A,,Clear,340,2014-01-23 11:35:00
4:55 AM,5.2,-1.3,75,30.07,10.0,Calm,Calm,-,N/A,,Clear,0,2014-01-23 11:55:00
5:15 AM,5.0,-2.6,71,30.07,10.0,Calm,Calm,-,N/A,,Clear,0,2014-01-23 12:15:00
5:35 AM,5.2,-0.4,78,30.07,10.0,South,4.6,-,N/A,,Clear,170,2014-01-23 12:35:00
5:55 AM,13.5,4.6,68,30.08,10.0,South,8.1,-,N/A,,Clear,170,2014-01-23 12:55:00
6:15 AM,15.3,5.5,65,30.09,10.0,SSE,8.1,-,N/A,,Clear,150,2014-01-23 13:15:00
6:35 AM,23.2,8.8,54,30.10,10.0,SSE,12.7,-,N/A,,Clear,150,2014-01-23 13:35:00
6:55 AM,26.2,10.0,50,30.11,10.0,SSE,15.0,21.9,N/A,,Clear,160,2014-01-23 13:55:00
7:15 AM,26.2,10.8,52,30.12,10.0,SSE,16.1,-,N/A,,Clear,160,2014-01-23 14:15:00
7:35 AM,26.4,10.9,52,30.13,10.0,SSE,13.8,-,N/A,,Clear,160,2014-01-23 14:35:00
7:55 AM,27.3,11.8,52,30.14,10.0,SSE,19.6,23.0,N/A,,Clear,160,2014-01-23 14:55:00
8:15 AM,28.2,12.9,53,30.16,10.0,SSE,16.1,21.9,N/A,,Clear,160,2014-01-23 15:15:00
8:35 AM,29.5,13.6,52,30.18,10.0,SSE,13.8,-,N/A,,Mostly Cloudy,150,2014-01-23 15:35:00
8:55 AM,29.8,13.6,51,30.19,10.0,SSE,16.1,21.9,N/A,,Overcast,160,2014-01-23 15:55:00
9:15 AM,29.8,13.1,50,30.20,10.0,SSE,18.4,-,N/A,,Overcast,150,2014-01-23 16:15:00
9:35 AM,31.1,13.8,49,30.21,10.0,SSE,17.3,-,N/A,,Mostly Cloudy,150,2014-01-23 16:35:00
9:55 AM,32.9,14.4,47,30.22,10.0,SSE,19.6,26.5,N/A,,Mostly Cloudy,150,2014-01-23 16:55:00
10:15 AM,32.2,14.0,47,30.23,10.0,SE,21.9,27.6,N/A,,Overcast,140,2014-01-23 17:15:00
10:35 AM,33.1,14.5,47,30.24,10.0,SE,24.2,27.6,N/A,,Overcast,140,2014-01-23 17:35:00
10:55 AM,34.2,15.4,46,30.24,10.0,SSE,23.0,29.9,N/A,,Scattered Clouds,150,2014-01-23 17:55:00
11:15 AM,34.7,15.8,46,30.24,10.0,SE,25.3,29.9,N/A,,Scattered Clouds,140,2014-01-23 18:15:00
11:35 AM,35.1,16.2,46,30.24,10.0,SE,21.9,29.9,N/A,,Clear,130,2014-01-23 18:35:00
11:55 AM,36.0,15.8,44,30.24,10.0,SE,21.9,31.1,N/A,,Clear,130,2014-01-23 18:55:00
12:15 PM,36.9,15.6,42,30.24,10.0,SE,21.9,27.6,N/A,,Clear,140,2014-01-23 19:15:00
12:35 PM,36.7,15.4,42,30.24,10.0,SE,23.0,28.8,N/A,,Clear,140,2014-01-23 19:35:00
12:55 PM,36.7,15.8,43,30.24,10.0,SE,24.2,29.9,N/A,,Clear,130,2014-01-23 19:55:00
1:15 PM,36.5,16.0,43,30.24,10.0,SE,21.9,29.9,N/A,,Clear,130,2014-01-23 20:15:00
1:35 PM,37.2,16.0,42,30.24,10.0,ESE,17.3,28.8,N/A,,Clear,120,2014-01-23 20:35:00
1:55 PM,37.2,15.8,42,30.24,10.0,SE,19.6,27.6,N/A,,Clear,140,2014-01-23 20:55:00
2:15 PM,36.9,15.6,42,30.25,10.0,SE,18.4,27.6,N/A,,Clear,130,2014-01-23 21:15:00
2:35 PM,37.0,15.4,41,30.26,10.0,SE,19.6,29.9,N/A,,Clear,130,2014-01-23 21:35:00
2:55 PM,36.9,14.9,41,30.26,10.0,SE,20.7,27.6,N/A,,Clear,130,2014-01-23 21:55:00
3:15 PM,36.1,14.9,42,30.27,10.0,SE,18.4,25.3,N/A,,Clear,140,2014-01-23 22:15:00
3:35 PM,35.6,14.7,42,30.28,10.0,SE,20.7,-,N/A,,Clear,130,2014-01-23 22:35:00
3:55 PM,35.1,14.7,43,30.27,10.0,SE,20.7,27.6,N/A,,Clear,140,2014-01-23 22:55:00
4:15 PM,34.0,14.7,45,30.29,10.0,SE,24.2,-,N/A,,Clear,130,2014-01-23 23:15:00
4:35 PM,32.9,14.4,47,30.29,10.0,SE,19.6,24.2,N/A,,Clear,140,2014-01-23 23:35:00
4:55 PM,32.0,14.4,48,30.29,10.0,SE,23.0,26.5,N/A,,Clear,140,2014-01-23 23:55:00
5:15 PM,30.2,14.4,52,30.30,10.0,SE,20.7,27.6,N/A,,Clear,130,2014-01-24 00:15:00
5:35 PM,28.9,14.4,55,30.32,10.0,SE,15.0,25.3,N/A,,Clear,140,2014-01-24 00:35:00
5:55 PM,27.9,14.4,57,30.33,10.0,SSE,15.0,21.9,N/A,,Clear,150,2014-01-24 00:55:00
6:15 PM,27.0,13.6,57,30.35,10.0,SSE,17.3,26.5,N/A,,Clear,150,2014-01-24 01:15:00
6:35 PM,25.9,13.5,59,30.36,10.0,SSE,17.3,25.3,N/A,,Clear,150,2014-01-24 01:35:00
6:55 PM,25.2,13.3,61,30.37,10.0,SSE,17.3,24.2,N/A,,Clear,150,2014-01-24 01:55:00
7:35 PM,23.9,12.9,63,30.40,10.0,SSE,17.3,24.2,N/A,,Clear,160,2014-01-24 02:35:00
7:55 PM,23.2,12.6,64,30.41,10.0,SSE,15.0,19.6,N/A,,Clear,160,2014-01-24 02:55:00
8:15 PM,23.0,12.2,63,30.42,10.0,SSE,12.7,20.7,N/A,,Clear,150,2014-01-24 03:15:00
8:55 PM,21.4,11.7,66,30.44,10.0,SSE,11.5,20.7,N/A,,Clear,160,2014-01-24 03:55:00
9:15 PM,20.3,11.3,68,30.44,10.0,South,10.4,-,N/A,,Clear,170,2014-01-24 04:15:00
9:35 PM,19.8,11.1,69,30.46,10.0,South,11.5,-,N/A,,Clear,170,2014-01-24 04:35:00
9:55 PM,19.4,10.9,70,30.46,10.0,South,11.5,18.4,N/A,,Clear,170,2014-01-24 04:55:00
10:15 PM,18.9,10.9,71,30.47,10.0,South,10.4,-,N/A,,Clear,170,2014-01-24 05:15:00
10:35 PM,18.3,10.8,72,30.47,10.0,South,8.1,-,N/A,,Clear,180,2014-01-24 05:35:00
10:55 PM,17.2,10.4,75,30.47,10.0,South,8.1,-,N/A,,Clear,190,2014-01-24 05:55:00
11:15 PM,17.2,10.8,76,30.47,10.0,South,5.8,-,N/A,,Clear,190,2014-01-24 06:15:00
11:35 PM,14.5,9.3,80,30.47,10.0,ESE,4.6,-,N/A,,Clear,110,2014-01-24 06:35:00
11:55 PM,13.8,8.6,80,30.48,10.0,ESE,3.5,-,N/A,,Clear,120,2014-01-24 06:55:00